Time;durP1;ratioP1;P1;durP2;ratioP2;P2;SDS_P1;SDS_P2;PMS_P1;PMS_P2;Temp;Humidity;BMP_temperature;BMP_pressure;BME280_temperature;BME280_humidity;BME280_pressure;Samples;Min_cycle;Max_cycle;Signal;HPM_P1;HPM_P2
2022/05/07 00:00:14;;;;;;;24.40;21.70;;;12.10;99.90;;;;;;4960341;28;88742;-36
2022/05/07 00:02:40;;;;;;;25.70;22.92;;;12.10;99.90;;;;;;4960795;28;90619;-34
2022/05/07 00:05:06;;;;;;;26.98;22.83;;;12.10;99.90;;;;;;4960250;28;89752;-33
2022/05/07 00:07:31;;;;;;;27.45;21.70;;;12.10;99.90;;;;;;4961078;28;89762;-37
2022/05/07 00:09:57;;;;;;;27.80;21.85;;;12.20;99.90;;;;;;4960949;28;88217;-34
2022/05/07 00:12:23;;;;;;;25.92;22.45;;;12.20;99.90;;;;;;4960355;28;90156;-34
2022/05/07 00:14:48;;;;;;;26.15;21.15;;;12.20;99.90;;;;;;4958893;28;89566;-36
2022/05/07 00:19:58;;;;;;;26.20;23.08;;;12.20;99.90;;;;;;4960755;28;88037;-34
2022/05/07 00:22:23;;;;;;;27.00;23.17;;;12.30;99.90;;;;;;4960398;28;90176;-35
2022/05/07 00:24:50;;;;;;;26.23;23.10;;;12.30;99.90;;;;;;4960252;28;90608;-37
2022/05/07 00:27:16;;;;;;;26.02;22.58;;;12.30;99.90;;;;;;4960425;28;89090;-34
2022/05/07 00:29:41;;;;;;;25.63;22.15;;;12.30;99.90;;;;;;4959991;28;88886;-33
2022/05/07 00:32:09;;;;;;;26.23;22.55;;;12.30;99.90;;;;;;4960816;28;90220;-37
2022/05/07 00:34:34;;;;;;;26.17;22.95;;;12.30;99.90;;;;;;4960322;28;90707;-37
2022/05/07 00:37:00;;;;;;;30.17;22.50;;;12.30;99.90;;;;;;4959958;28;89846;-33
2022/05/07 00:39:26;;;;;;;28.15;23.17;;;12.30;99.90;;;;;;4992058;22;89562;-37
2022/05/07 00:41:52;;;;;;;24.10;21.58;;;12.40;99.90;;;;;;4959926;28;90715;-36
2022/05/07 00:44:20;;;;;;;25.60;21.45;;;12.40;99.90;;;;;;4960205;28;90151;-36
2022/05/07 00:46:47;;;;;;;28.55;24.35;;;12.40;99.90;;;;;;4960601;28;88944;-35
2022/05/07 00:49:13;;;;;;;28.63;25.17;;;12.40;99.90;;;;;;4960183;28;89128;-35
2022/05/07 00:51:39;;;;;;;26.70;23.63;;;12.40;99.90;;;;;;4959387;28;90076;-35
2022/05/07 00:54:09;;;;;;;30.15;23.15;;;12.40;99.90;;;;;;4958742;28;89870;-32
2022/05/07 00:56:37;;;;;;;24.40;20.95;;;12.40;99.90;;;;;;4960091;28;88484;-34
2022/05/07 00:59:04;;;;;;;29.98;22.88;;;12.40;99.90;;;;;;4960508;28;90048;-33
2022/05/07 01:01:30;;;;;;;25.15;22.17;;;12.40;99.90;;;;;;4959359;28;90179;-37
2022/05/07 01:03:56;;;;;;;25.10;22.48;;;12.30;99.90;;;;;;4959196;28;90588;-40
2022/05/07 01:06:21;;;;;;;25.73;22.83;;;12.30;99.90;;;;;;4959748;28;90370;-36
2022/05/07 01:08:48;;;;;;;26.58;23.75;;;12.20;99.90;;;;;;4959415;28;88865;-37
2022/05/07 01:11:18;;;;;;;25.50;22.42;;;12.20;99.90;;;;;;4959804;28;89468;-34
2022/05/07 01:13:45;;;;;;;24.48;22.05;;;12.20;99.90;;;;;;4959689;28;89711;-34
2022/05/07 01:16:12;;;;;;;26.05;21.98;;;12.20;99.90;;;;;;4959784;28;90829;-35
2022/05/07 01:18:38;;;;;;;33.47;22.77;;;12.20;99.90;;;;;;4959502;28;89247;-36
2022/05/07 01:21:12;;;;;;;29.75;22.95;;;12.20;99.90;;;;;;4960031;28;90263;-38
2022/05/07 01:23:41;;;;;;;25.42;22.77;;;12.20;99.90;;;;;;4959448;28;89629;-35
2022/05/07 01:26:06;;;;;;;26.02;21.00;;;12.20;99.90;;;;;;4956416;28;88607;-33
2022/05/07 01:28:32;;;;;;;24.35;21.58;;;12.20;99.90;;;;;;4939630;28;90803;-35
2022/05/07 01:30:57;;;;;;;26.55;22.27;;;12.20;99.90;;;;;;4939292;28;90052;-35
2022/05/07 01:33:23;;;;;;;26.95;23.75;;;12.30;99.90;;;;;;4940656;28;89924;-39
2022/05/07 01:35:49;;;;;;;29.80;23.92;;;12.30;99.90;;;;;;4939464;28;89626;-35
2022/05/07 01:38:14;;;;;;;26.98;24.20;;;12.30;99.90;;;;;;4939288;28;88679;-35
2022/05/07 01:40:40;;;;;;;31.90;25.17;;;12.30;99.90;;;;;;4939344;28;89350;-34
2022/05/07 01:43:05;;;;;;;29.67;26.15;;;12.30;99.90;;;;;;4939352;28;88576;-35
2022/05/07 01:45:31;;;;;;;32.17;28.13;;;12.30;99.90;;;;;;4940304;28;89744;-38
2022/05/07 01:48:12;;;;;;;34.50;28.33;;;12.30;99.90;;;;;;4939650;28;88547;-33
2022/05/07 01:50:42;;;;;;;31.63;28.42;;;12.30;99.90;;;;;;4939144;28;91065;-34
2022/05/07 01:53:09;;;;;;;35.25;27.40;;;12.30;99.90;;;;;;4939408;28;90346;-33
2022/05/07 01:55:36;;;;;;;31.53;25.50;;;12.20;99.90;;;;;;4939271;28;90206;-35
2022/05/07 01:58:02;;;;;;;31.00;26.30;;;12.30;99.90;;;;;;4940404;28;89341;-37
2022/05/07 02:00:30;;;;;;;32.97;27.65;;;12.30;99.90;;;;;;4939654;28;90330;-34
2022/05/07 02:02:57;;;;;;;27.23;24.33;;;12.40;99.90;;;;;;4939494;28;89451;-35
2022/05/07 02:05:24;;;;;;;30.65;25.80;;;12.30;99.90;;;;;;4938886;28;89549;-38
2022/05/07 02:07:49;;;;;;;27.63;24.85;;;12.30;99.90;;;;;;4939845;28;88792;-39
2022/05/07 02:10:15;;;;;;;28.77;24.40;;;12.30;99.90;;;;;;4939833;28;89390;-39
2022/05/07 02:12:41;;;;;;;33.38;27.15;;;12.30;99.90;;;;;;4938754;28;89723;-38
2022/05/07 02:15:07;;;;;;;35.38;27.27;;;12.30;99.90;;;;;;4939778;28;89417;-35
2022/05/07 02:17:32;;;;;;;31.83;25.90;;;12.30;99.90;;;;;;4938832;28;89062;-36
2022/05/07 02:19:58;;;;;;;26.73;24.05;;;12.30;99.90;;;;;;4939173;28;90323;-34
2022/05/07 02:22:24;;;;;;;38.20;25.42;;;12.30;99.90;;;;;;4939519;28;90613;-35
2022/05/07 02:24:50;;;;;;;33.60;25.27;;;12.30;99.90;;;;;;4938916;28;89650;-35
2022/05/07 02:27:15;;;;;;;31.48;25.33;;;12.30;99.90;;;;;;4939696;28;89279;-35
2022/05/07 02:29:41;;;;;;;31.35;25.80;;;12.30;99.90;;;;;;4938357;28;90318;-35
2022/05/07 02:32:07;;;;;;;31.77;24.55;;;12.30;99.90;;;;;;4940282;28;88319;-36
2022/05/07 02:34:34;;;;;;;28.90;25.30;;;12.40;99.90;;;;;;4939011;28;91340;-35
2022/05/07 02:37:00;;;;;;;32.70;25.05;;;12.40;99.90;;;;;;4939844;28;88902;-33
2022/05/07 02:39:26;;;;;;;29.77;26.65;;;12.40;99.90;;;;;;4942364;28;89825;-34
2022/05/07 02:44:36;;;;;;;31.30;26.67;;;12.40;99.90;;;;;;4942789;28;91235;-34
2022/05/07 02:47:02;;;;;;;31.13;23.35;;;12.50;99.90;;;;;;4942940;28;88269;-36
2022/05/07 02:49:28;;;;;;;33.45;26.65;;;12.50;99.90;;;;;;4942153;28;90517;-35
2022/05/07 02:51:53;;;;;;;32.30;26.67;;;12.50;99.90;;;;;;4942564;28;89609;-38
2022/05/07 02:54:19;;;;;;;30.38;25.90;;;12.50;99.90;;;;;;4941688;28;89849;-35
2022/05/07 02:56:44;;;;;;;30.55;25.40;;;12.60;99.90;;;;;;4943335;28;89400;-36
2022/05/07 02:59:10;;;;;;;29.33;26.13;;;12.50;99.90;;;;;;4942644;28;89942;-36
2022/05/07 03:01:35;;;;;;;31.77;26.02;;;12.50;99.90;;;;;;4941575;28;90264;-36
2022/05/07 03:04:01;;;;;;;27.52;23.60;;;12.60;99.90;;;;;;4942276;28;90157;-34
2022/05/07 03:06:26;;;;;;;29.15;24.90;;;12.60;99.90;;;;;;4941471;28;89389;-40
2022/05/07 03:08:52;;;;;;;31.80;26.95;;;12.60;99.90;;;;;;4942905;28;90178;-35
2022/05/07 03:11:18;;;;;;;35.60;26.33;;;12.60;99.90;;;;;;4941966;28;89580;-34
2022/05/07 03:13:44;;;;;;;32.28;28.35;;;12.70;99.90;;;;;;4941757;28;89792;-35
2022/05/07 03:16:09;;;;;;;31.25;27.65;;;12.70;99.90;;;;;;4941969;28;88112;-36
2022/05/07 03:18:35;;;;;;;32.42;26.55;;;12.70;99.90;;;;;;4940270;28;89754;-34
2022/05/07 03:21:02;;;;;;;31.65;28.25;;;12.70;99.90;;;;;;4942326;28;90222;-34
2022/05/07 03:23:27;;;;;;;37.50;28.15;;;12.70;99.90;;;;;;4942051;28;89603;-35
2022/05/07 03:25:53;;;;;;;27.63;24.70;;;12.70;99.90;;;;;;4942035;28;88160;-36
2022/05/07 03:28:19;;;;;;;30.15;26.83;;;12.70;99.90;;;;;;4941613;28;91689;-37
2022/05/07 03:30:44;;;;;;;30.38;26.15;;;12.70;99.90;;;;;;4941550;28;91230;-34
2022/05/07 03:33:10;;;;;;;30.65;26.50;;;12.70;99.90;;;;;;4942650;28;90923;-34
2022/05/07 03:35:36;;;;;;;38.45;26.25;;;12.70;99.90;;;;;;4941445;28;88473;-34
2022/05/07 03:38:02;;;;;;;31.02;27.45;;;12.70;99.90;;;;;;4941806;28;90192;-36
2022/05/07 03:40:28;;;;;;;35.85;28.92;;;12.70;99.90;;;;;;4940542;28;89649;-34
2022/05/07 03:42:54;;;;;;;37.38;29.73;;;12.70;99.90;;;;;;4940502;28;91030;-34
2022/05/07 03:45:20;;;;;;;31.20;27.83;;;12.70;99.90;;;;;;4942073;28;88073;-34
2022/05/07 03:47:46;;;;;;;30.17;25.30;;;12.70;99.90;;;;;;4941015;28;89144;-34
2022/05/07 03:50:12;;;;;;;32.10;28.67;;;12.70;99.90;;;;;;4941783;28;90864;-35
2022/05/07 03:55:22;;;;;;;30.48;27.17;;;12.60;99.90;;;;;;4941554;28;89417;-34
2022/05/07 03:57:47;;;;;;;34.80;28.95;;;12.60;99.90;;;;;;4941719;28;91036;-35
2022/05/07 04:00:13;;;;;;;31.23;27.98;;;12.60;99.90;;;;;;4940812;28;90112;-34
2022/05/07 04:02:40;;;;;;;31.40;28.10;;;12.60;99.90;;;;;;4941463;28;88706;-38
2022/05/07 04:05:05;;;;;;;37.90;28.38;;;12.60;99.90;;;;;;4941138;28;88160;-36
2022/05/07 04:07:31;;;;;;;34.75;27.60;;;12.60;99.90;;;;;;4940612;28;89743;-37
2022/05/07 04:09:56;;;;;;;33.33;29.85;;;12.60;99.90;;;;;;4941071;28;90342;-34
2022/05/07 04:12:22;;;;;;;31.13;27.65;;;12.60;99.90;;;;;;4941390;28;89886;-35
2022/05/07 04:14:48;;;;;;;38.03;28.70;;;12.60;99.90;;;;;;4941214;28;89253;-36
2022/05/07 04:17:13;;;;;;;31.80;27.80;;;12.60;99.90;;;;;;4940716;28;90013;-33
2022/05/07 04:19:39;;;;;;;32.65;28.48;;;12.60;99.90;;;;;;4940838;28;90884;-38
2022/05/07 04:22:05;;;;;;;33.78;28.50;;;12.60;99.90;;;;;;4940971;28;91839;-35
2022/05/07 04:24:33;;;;;;;31.25;28.05;;;12.60;99.90;;;;;;4941644;28;90339;-33
2022/05/07 04:26:59;;;;;;;34.85;29.00;;;12.60;99.90;;;;;;4940907;28;89878;-34
2022/05/07 04:29:25;;;;;;;31.73;28.40;;;12.70;99.90;;;;;;4940964;28;89717;-35
2022/05/07 04:31:50;;;;;;;33.17;29.27;;;12.70;99.90;;;;;;4940685;28;89548;-40
2022/05/07 04:34:16;;;;;;;30.77;27.00;;;12.60;99.90;;;;;;4941781;28;89601;-33
2022/05/07 04:36:42;;;;;;;29.92;26.65;;;12.70;99.90;;;;;;4940474;28;90084;-32
2022/05/07 04:39:07;;;;;;;35.72;29.70;;;12.70;99.90;;;;;;4940652;28;89877;-37
2022/05/07 04:41:33;;;;;;;32.65;29.20;;;12.70;99.90;;;;;;4940081;28;89595;-38
2022/05/07 04:44:01;;;;;;;33.20;27.75;;;12.70;99.90;;;;;;4938553;28;88931;-37
2022/05/07 04:46:27;;;;;;;30.97;27.63;;;12.70;99.90;;;;;;4941020;28;90464;-35
2022/05/07 04:48:52;;;;;;;31.05;27.73;;;12.70;99.90;;;;;;4940212;28;89016;-35
2022/05/07 04:51:18;;;;;;;32.10;28.05;;;12.70;99.90;;;;;;4940683;28;88378;-37
2022/05/07 04:53:44;;;;;;;32.35;27.40;;;12.80;99.90;;;;;;4940564;28;90349;-34
2022/05/07 04:56:10;;;;;;;35.75;28.15;;;12.80;99.90;;;;;;4939791;28;90418;-33
2022/05/07 04:58:36;;;;;;;30.90;27.73;;;12.80;99.90;;;;;;4940727;28;89838;-33
2022/05/07 05:01:02;;;;;;;37.05;28.73;;;12.90;99.90;;;;;;4939918;28;90510;-34
2022/05/07 05:03:27;;;;;;;35.70;29.20;;;12.90;99.90;;;;;;4940523;28;89490;-38
2022/05/07 05:05:53;;;;;;;33.65;26.67;;;12.90;99.90;;;;;;4939922;28;90012;-36
2022/05/07 05:08:18;;;;;;;36.05;28.55;;;13.00;99.90;;;;;;4939705;28;90651;-40
2022/05/07 05:10:45;;;;;;;33.28;26.98;;;13.00;99.90;;;;;;4940470;28;89745;-34
2022/05/07 05:13:11;;;;;;;29.33;25.50;;;13.10;99.90;;;;;;4940221;28;89882;-36
2022/05/07 05:15:37;;;;;;;30.42;27.23;;;13.10;99.90;;;;;;4940289;28;90179;-35
2022/05/07 05:18:03;;;;;;;30.42;25.83;;;13.20;99.90;;;;;;4940386;28;89690;-37
2022/05/07 05:20:29;;;;;;;39.10;28.50;;;13.20;99.90;;;;;;4939718;28;89569;-33
2022/05/07 05:22:54;;;;;;;40.17;27.63;;;13.20;99.90;;;;;;4940765;28;87700;-36
2022/05/07 05:25:20;;;;;;;35.40;30.23;;;13.20;99.90;;;;;;4940236;28;90442;-35
2022/05/07 05:27:47;;;;;;;30.38;26.45;;;13.20;99.90;;;;;;4939992;28;90222;-38
2022/05/07 05:30:13;;;;;;;31.42;26.35;;;13.30;99.90;;;;;;4939764;28;89653;-33
2022/05/07 05:32:39;;;;;;;33.80;28.27;;;13.30;99.90;;;;;;4939510;28;89457;-35
2022/05/07 05:35:05;;;;;;;35.85;28.08;;;13.40;99.90;;;;;;4940495;28;90201;-36
2022/05/07 05:37:30;;;;;;;31.60;27.63;;;13.40;99.90;;;;;;4939849;28;88979;-35
2022/05/07 05:39:56;;;;;;;32.13;27.55;;;13.50;99.90;;;;;;4938752;28;89869;-34
2022/05/07 05:42:22;;;;;;;30.48;26.50;;;13.50;99.90;;;;;;4940672;28;88868;-34
2022/05/07 05:44:48;;;;;;;29.70;26.20;;;13.50;99.90;;;;;;4943547;28;90230;-34
2022/05/07 05:47:14;;;;;;;33.35;25.80;;;13.50;99.90;;;;;;4959042;28;90002;-37
2022/05/07 05:49:39;;;;;;;31.08;26.25;;;13.50;99.90;;;;;;4957993;28;89806;-36
2022/05/07 05:52:06;;;;;;;34.20;26.55;;;13.50;99.90;;;;;;4957609;28;88896;-36
2022/05/07 05:54:33;;;;;;;32.47;27.52;;;13.60;99.90;;;;;;4957507;28;90166;-38
2022/05/07 05:56:59;;;;;;;30.90;26.63;;;13.50;99.90;;;;;;4958165;28;90752;-35
2022/05/07 05:59:25;;;;;;;30.70;27.30;;;13.50;99.90;;;;;;4959435;28;91678;-35
2022/05/07 06:01:51;;;;;;;30.13;26.92;;;13.60;99.90;;;;;;4958902;28;88582;-35
2022/05/07 06:04:18;;;;;;;30.35;23.98;;;13.60;99.90;;;;;;4958626;28;90561;-33
2022/05/07 06:06:43;;;;;;;33.33;27.10;;;13.60;99.90;;;;;;4958591;28;89975;-36
2022/05/07 06:09:09;;;;;;;30.08;26.92;;;13.60;99.90;;;;;;4959412;28;89298;-35
2022/05/07 06:11:35;;;;;;;33.72;27.90;;;13.60;99.90;;;;;;4957359;28;89430;-38
2022/05/07 06:14:01;;;;;;;29.05;25.90;;;13.70;99.90;;;;;;4959896;28;90224;-33
2022/05/07 06:16:26;;;;;;;26.88;24.17;;;13.70;99.90;;;;;;4958751;28;94314;-35
2022/05/07 06:18:52;;;;;;;29.10;26.20;;;13.80;99.90;;;;;;4958857;28;89433;-36
2022/05/07 06:21:17;;;;;;;29.70;26.60;;;13.80;99.90;;;;;;4956367;28;90142;-35
2022/05/07 06:23:44;;;;;;;30.30;26.08;;;13.90;99.90;;;;;;4956955;28;90368;-36
2022/05/07 06:29:10;;;;;;;31.42;27.27;;;14.10;99.90;;;;;;4934373;28;90246;-40
2022/05/07 06:31:36;;;;;;;31.30;27.10;;;14.20;99.90;;;;;;4951493;28;88482;-36
2022/05/07 06:34:01;;;;;;;30.65;27.17;;;14.30;99.90;;;;;;4956593;28;89340;-36
2022/05/07 06:36:27;;;;;;;33.53;27.25;;;14.40;99.90;;;;;;4956580;28;89576;-36
2022/05/07 06:38:53;;;;;;;27.65;24.85;;;14.60;99.90;;;;;;4956966;28;89517;-35
2022/05/07 06:41:18;;;;;;;30.65;27.40;;;14.90;99.90;;;;;;4956518;28;87659;-34
2022/05/07 06:43:44;;;;;;;34.40;26.35;;;15.00;99.90;;;;;;4957922;28;90330;-37
2022/05/07 06:46:09;;;;;;;33.42;27.05;;;15.10;99.90;;;;;;4957659;28;90659;-36
2022/05/07 06:48:35;;;;;;;29.83;26.70;;;15.30;99.90;;;;;;4958066;28;91985;-38
2022/05/07 06:51:00;;;;;;;32.95;27.85;;;15.40;99.90;;;;;;4958348;28;89015;-35
2022/05/07 06:53:26;;;;;;;32.50;25.42;;;15.40;99.90;;;;;;4958755;28;89549;-36
2022/05/07 06:55:55;;;;;;;29.40;25.48;;;15.30;99.90;;;;;;4956410;28;90193;-36
2022/05/07 06:58:21;;;;;;;;;;;15.60;99.90;;;;;;4958032;28;89537;-34
2022/05/07 07:00:46;;;;;;;30.05;25.52;;;15.70;99.90;;;;;;4960023;28;89965;-35
2022/05/07 07:03:12;;;;;;;30.65;23.80;;;15.90;99.90;;;;;;4959146;28;90283;-35
2022/05/07 07:05:37;;;;;;;33.45;24.45;;;15.90;99.90;;;;;;4958085;28;93375;-34
2022/05/07 07:08:03;;;;;;;29.27;24.75;;;15.90;99.90;;;;;;4958068;28;91378;-38
2022/05/07 07:10:29;;;;;;;26.58;23.33;;;16.20;99.90;;;;;;4958079;28;89209;-33
2022/05/07 07:12:54;;;;;;;24.63;21.90;;;16.40;99.90;;;;;;4958294;28;89995;-35
2022/05/07 07:15:20;;;;;;;27.58;23.38;;;16.40;99.90;;;;;;4958282;28;93044;-35
2022/05/07 07:17:45;;;;;;;25.98;23.15;;;16.50;99.90;;;;;;4957928;28;94670;-35
2022/05/07 07:20:11;;;;;;;41.58;24.27;;;16.50;99.90;;;;;;4958006;28;87993;-36
2022/05/07 07:22:37;;;;;;;31.45;24.92;;;16.40;99.90;;;;;;4958436;28;91022;-34
2022/05/07 07:25:02;;;;;;;32.08;25.05;;;16.30;99.90;;;;;;4960301;28;89192;-34
2022/05/07 07:27:28;;;;;;;26.98;22.52;;;16.30;99.90;;;;;;4961804;28;89196;-34
2022/05/07 07:29:53;;;;;;;28.95;25.70;;;16.10;99.90;;;;;;4961478;28;88929;-34
2022/05/07 07:32:19;;;;;;;32.97;21.98;;;16.20;99.90;;;;;;4961298;28;89743;-35
2022/05/07 07:34:45;;;;;;;31.02;24.88;;;16.10;99.90;;;;;;4960865;28;90511;-35
2022/05/07 07:37:10;;;;;;;26.38;23.58;;;16.20;99.90;;;;;;4960874;28;89562;-35
2022/05/07 07:39:36;;;;;;;25.85;22.88;;;16.50;99.90;;;;;;4961179;28;88183;-33
2022/05/07 07:42:01;;;;;;;24.42;21.58;;;16.70;99.90;;;;;;4960939;28;92022;-34
2022/05/07 07:44:27;;;;;;;26.67;22.25;;;17.00;99.90;;;;;;4961222;28;89957;-36
2022/05/07 07:49:38;;;;;;;27.77;24.80;;;17.20;99.90;;;;;;4961342;28;89188;-35
2022/05/07 07:52:05;;;;;;;24.83;22.23;;;17.20;99.90;;;;;;4961720;28;89840;-34
2022/05/07 07:54:30;;;;;;;25.38;22.77;;;17.30;99.90;;;;;;4961459;28;89964;-34
2022/05/07 07:56:58;;;;;;;26.42;23.55;;;17.50;99.90;;;;;;4960637;28;90468;-35
2022/05/07 07:59:23;;;;;;;23.73;21.38;;;17.80;99.90;;;;;;4960906;28;89426;-37
2022/05/07 08:01:49;;;;;;;28.58;23.70;;;17.80;99.90;;;;;;4960267;28;93194;-34
2022/05/07 08:04:14;;;;;;;27.35;21.70;;;18.10;99.90;;;;;;4960721;28;89506;-37
2022/05/07 08:06:40;;;;;;;25.80;22.33;;;18.10;99.90;;;;;;4959071;28;90068;-34
2022/05/07 08:11:55;;;;;;;29.77;24.00;;;18.70;99.90;;;;;;4960900;28;90129;-38
2022/05/07 08:14:21;;;;;;;27.65;23.98;;;18.80;99.90;;;;;;4961227;28;89729;-33
2022/05/07 08:16:47;;;;;;;23.48;20.88;;;18.70;99.90;;;;;;4960463;28;91088;-36
2022/05/07 08:19:12;;;;;;;23.50;21.10;;;18.60;99.90;;;;;;4961224;28;89612;-35
2022/05/07 08:21:38;;;;;;;27.38;21.30;;;18.50;99.90;;;;;;4961248;28;90576;-34
2022/05/07 08:24:04;;;;;;;25.00;22.30;;;18.60;99.90;;;;;;4959777;28;91143;-33
2022/05/07 08:26:30;;;;;;;26.00;20.98;;;18.60;99.90;;;;;;4960263;28;91784;-35
2022/05/07 08:28:56;;;;;;;23.90;18.15;;;18.60;99.90;;;;;;4960034;28;88260;-36
2022/05/07 08:31:23;;;;;;;22.10;15.65;;;18.70;99.90;;;;;;4959958;28;90364;-39
2022/05/07 08:33:49;;;;;;;20.50;15.55;;;18.60;99.90;;;;;;4960837;28;90000;-38
2022/05/07 08:36:15;;;;;;;16.33;14.82;;;18.90;99.90;;;;;;4959012;28;89294;-37
2022/05/07 08:38:42;;;;;;;18.60;15.85;;;18.90;99.90;;;;;;4960176;28;89295;-36
2022/05/07 08:41:10;;;;;;;17.85;15.88;;;19.10;99.90;;;;;;4960878;28;90181;-34
2022/05/07 08:43:38;;;;;;;21.33;15.65;;;19.20;99.90;;;;;;4959999;28;89709;-35
2022/05/07 08:46:22;;;;;;;21.23;16.33;;;19.00;99.90;;;;;;4960043;28;89724;-35
2022/05/07 08:48:49;;;;;;;24.58;16.60;;;19.10;99.90;;;;;;4960205;28;88711;-35
2022/05/07 08:51:16;;;;;;;22.80;17.10;;;19.20;99.90;;;;;;4960097;28;90747;-34
2022/05/07 08:53:43;;;;;;;20.25;16.92;;;19.40;99.90;;;;;;4959822;28;89642;-35
2022/05/07 08:56:10;;;;;;;18.08;16.13;;;19.20;99.90;;;;;;4960010;28;89920;-39
2022/05/07 08:58:35;;;;;;;16.73;13.73;;;19.50;99.90;;;;;;4960524;28;89306;-34
2022/05/07 09:01:01;;;;;;;22.50;13.07;;;19.40;99.90;;;;;;4959902;28;90211;-35
2022/05/07 09:03:44;;;;;;;13.00;11.20;;;19.40;99.90;;;;;;4960484;28;89592;-37
2022/05/07 09:06:24;;;;;;;15.43;12.18;;;19.10;99.90;;;;;;4958404;28;89933;-34
2022/05/07 09:08:51;;;;;;;14.85;13.02;;;18.90;99.90;;;;;;4958625;28;88466;-36
2022/05/07 09:11:18;;;;;;;17.77;12.38;;;18.90;99.90;;;;;;4958170;28;90226;-33
2022/05/07 09:13:45;;;;;;;15.30;13.77;;;18.90;99.90;;;;;;4957693;28;90512;-40
2022/05/07 09:16:11;;;;;;;15.77;11.05;;;18.80;99.90;;;;;;4957889;28;90462;-34
2022/05/07 09:18:36;;;;;;;14.73;12.68;;;18.60;99.90;;;;;;4956390;28;89305;-37
2022/05/07 09:21:17;;;;;;;15.23;12.18;;;18.70;99.90;;;;;;4958151;28;90852;-34
2022/05/07 09:23:48;;;;;;;18.15;13.77;;;18.70;99.90;;;;;;4957593;28;89858;-37
2022/05/07 09:26:24;;;;;;;16.92;13.27;;;18.60;99.90;;;;;;4955374;28;90450;-38
2022/05/07 09:28:50;;;;;;;20.13;13.48;;;18.50;99.90;;;;;;4956784;28;88359;-33
2022/05/07 09:31:26;;;;;;;17.02;12.18;;;18.70;99.90;;;;;;4956555;28;89035;-36
2022/05/07 09:33:52;;;;;;;18.35;12.65;;;18.70;99.90;;;;;;4957589;28;89669;-39
2022/05/07 09:36:19;;;;;;;14.98;12.00;;;18.50;99.90;;;;;;4957594;28;90384;-35
2022/05/07 09:38:47;;;;;;;19.20;13.02;;;18.60;99.90;;;;;;4956474;28;88388;-33
2022/05/07 09:41:20;;;;;;;20.52;12.65;;;18.50;99.90;;;;;;4956351;28;90448;-37
2022/05/07 09:43:50;;;;;;;13.77;11.65;;;18.50;99.90;;;;;;4957820;28;89670;-33
2022/05/07 09:46:17;;;;;;;13.25;11.85;;;18.60;99.90;;;;;;4956118;28;90255;-36
2022/05/07 09:48:46;;;;;;;14.45;11.18;;;18.40;99.90;;;;;;4957294;28;89404;-37
2022/05/07 09:51:11;;;;;;;14.35;11.65;;;18.50;99.90;;;;;;4956927;28;89986;-37
2022/05/07 09:59:11;;;;;;;18.55;12.05;;;18.40;99.90;;;;;;4944802;28;88365;-37
2022/05/07 10:02:05;;;;;;;17.80;12.50;;;18.20;99.90;;;;;;4955786;28;90200;-34
2022/05/07 10:04:46;;;;;;;16.30;12.00;;;18.40;99.90;;;;;;4957260;28;90359;-37
2022/05/07 10:07:36;;;;;;;12.20;10.32;;;18.30;99.90;;;;;;4956873;28;90073;-38
2022/05/07 10:10:27;;;;;;;13.82;11.90;;;18.60;99.90;;;;;;4957078;28;89179;-36
2022/05/07 10:12:55;;;;;;;14.38;11.50;;;18.60;99.90;;;;;;4955808;28;90394;-33
2022/05/07 10:15:23;;;;;;;15.77;11.88;;;18.60;99.90;;;;;;4955771;28;90270;-37
2022/05/07 10:18:01;;;;;;;14.20;10.98;;;18.70;99.90;;;;;;4956971;28;89594;-35
2022/05/07 10:20:37;;;;;;;15.35;11.68;;;18.80;99.90;;;;;;4956923;28;89998;-36
2022/05/07 10:23:03;;;;;;;15.55;11.88;;;18.60;99.90;;;;;;4957497;28;89063;-35
2022/05/07 10:25:28;;;;;;;13.13;10.82;;;18.70;99.90;;;;;;4957079;28;89271;-34
2022/05/07 10:27:54;;;;;;;14.32;12.30;;;18.80;99.90;;;;;;4957177;28;89765;-38
2022/05/07 10:30:22;;;;;;;15.43;12.65;;;18.80;99.90;;;;;;4956218;28;88921;-35
2022/05/07 10:32:58;;;;;;;;;;;18.90;99.90;;;;;;4956857;28;90789;-37
2022/05/07 10:35:42;;;;;;;16.25;11.10;;;19.30;99.90;;;;;;4959033;28;88453;-38
2022/05/07 10:38:09;;;;;;;11.13;10.02;;;19.50;99.90;;;;;;4955127;28;90655;-35
2022/05/07 10:40:34;;;;;;;21.40;14.30;;;19.60;99.90;;;;;;4954700;28;90121;-38
2022/05/07 10:43:00;;;;;;;13.18;11.15;;;19.50;99.90;;;;;;4952730;28;90821;-35
2022/05/07 10:45:27;;;;;;;16.73;13.85;;;19.40;99.90;;;;;;4955301;28;89686;-35
2022/05/07 10:47:57;;;;;;;25.00;13.32;;;19.30;99.90;;;;;;4955683;28;89804;-39
2022/05/07 10:50:23;;;;;;;14.30;11.25;;;19.30;99.90;;;;;;4956896;28;89654;-39
2022/05/07 10:52:56;;;;;;;15.75;14.07;;;19.30;99.90;;;;;;4956481;28;90072;-37
2022/05/07 10:55:26;;;;;;;23.05;13.55;;;18.90;99.90;;;;;;4955843;28;90815;-35
2022/05/07 10:57:52;;;;;;;19.77;14.48;;;18.80;99.90;;;;;;4956823;28;90446;-34
2022/05/07 11:00:20;;;;;;;17.23;13.18;;;18.80;99.90;;;;;;4958912;28;89737;-34
2022/05/07 11:02:48;;;;;;;17.50;14.02;;;18.80;99.90;;;;;;4960098;28;92470;-35
2022/05/07 11:05:14;;;;;;;;;;;18.70;99.90;;;;;;4960305;28;89720;-36
2022/05/07 11:07:41;;;;;;;17.60;11.80;;;18.50;99.90;;;;;;4962037;28;88949;-33
2022/05/07 11:10:08;;;;;;;15.18;11.75;;;18.80;99.90;;;;;;4960098;28;90055;-34
2022/05/07 11:12:35;;;;;;;24.65;14.95;;;18.70;99.90;;;;;;4959732;28;90199;-38
2022/05/07 11:15:07;;;;;;;18.48;13.55;;;18.80;99.90;;;;;;4959680;28;89626;-35
2022/05/07 11:17:35;;;;;;;21.92;15.30;;;18.80;99.90;;;;;;4959413;28;90992;-35
2022/05/07 11:20:02;;;;;;;;;;;18.90;99.90;;;;;;4960221;28;89471;-35
2022/05/07 11:22:31;;;;;;;21.25;16.42;;;19.10;99.90;;;;;;4961605;28;88973;-35
2022/05/07 11:25:01;;;;;;;18.27;16.42;;;19.10;99.90;;;;;;4959626;28;89804;-36
2022/05/07 11:27:32;;;;;;;19.52;17.27;;;19.10;99.90;;;;;;4958171;28;89707;-37
2022/05/07 11:30:04;;;;;;;19.38;15.98;;;19.20;99.90;;;;;;4959127;28;89918;-39
2022/05/07 11:32:42;;;;;;;36.03;17.58;;;19.30;99.90;;;;;;4958982;28;89186;-36
2022/05/07 11:35:09;;;;;;;19.90;14.73;;;19.30;99.90;;;;;;4959173;28;89454;-37
2022/05/07 11:37:45;;;;;;;21.33;16.73;;;19.50;99.90;;;;;;4958649;28;88839;-36
2022/05/07 11:40:13;;;;;;;19.70;16.45;;;19.50;99.90;;;;;;4959256;28;89404;-35
2022/05/07 11:42:49;;;;;;;25.45;17.55;;;19.40;99.90;;;;;;4958576;28;90346;-36
2022/05/07 11:45:31;;;;;;;20.83;15.43;;;19.20;99.90;;;;;;4958101;28;91854;-36
2022/05/07 11:48:04;;;;;;;16.38;14.70;;;19.30;99.90;;;;;;4958691;28;89956;-34
2022/05/07 11:50:41;;;;;;;17.70;15.95;;;19.00;99.90;;;;;;4958782;28;88645;-36
2022/05/07 11:53:12;;;;;;;18.92;16.27;;;19.30;99.90;;;;;;4959410;28;90436;-37
2022/05/07 11:55:38;;;;;;;22.73;18.83;;;19.20;99.90;;;;;;4958438;28;89886;-33
2022/05/07 11:58:23;;;;;;;23.05;17.88;;;19.40;99.90;;;;;;4957370;28;90006;-35
2022/05/07 12:00:51;;;;;;;19.13;14.95;;;19.50;99.90;;;;;;4958604;28;89509;-38
2022/05/07 12:03:23;;;;;;;20.77;18.20;;;19.70;99.90;;;;;;4959309;28;90172;-35
2022/05/07 12:05:51;;;;;;;22.05;17.88;;;19.60;99.90;;;;;;4957381;28;89954;-36
2022/05/07 12:08:17;;;;;;;21.65;15.20;;;19.50;99.90;;;;;;4958203;28;89328;-34
2022/05/07 12:10:44;;;;;;;17.95;14.13;;;19.80;99.90;;;;;;4958200;28;88943;-36
2022/05/07 12:13:10;;;;;;;23.23;18.20;;;20.00;99.90;;;;;;4958532;28;89511;-38
2022/05/07 12:18:24;;;;;;;23.45;16.60;;;19.90;99.90;;;;;;4958509;28;89638;-36
2022/05/07 12:20:51;;;;;;;20.05;16.25;;;19.70;99.90;;;;;;4958428;28;89651;-36
2022/05/07 12:31:29;;;;;;;24.67;21.95;;;19.40;99.90;;;;;;4959052;28;88118;-35
2022/05/07 12:33:55;;;;;;;22.25;19.23;;;19.50;99.90;;;;;;4957392;28;90008;-34
2022/05/07 12:36:21;;;;;;;27.15;23.45;;;19.40;99.90;;;;;;4957557;28;91287;-38
2022/05/07 12:38:47;;;;;;;33.78;26.35;;;19.50;99.90;;;;;;4957553;28;90057;-36
2022/05/07 12:41:12;;;;;;;32.63;26.02;;;19.60;99.90;;;;;;5005487;22;88942;-34
2022/05/07 12:43:39;;;;;;;32.88;26.60;;;19.30;99.90;;;;;;4958272;28;90071;-36
2022/05/07 12:46:04;;;;;;;31.92;25.30;;;19.30;99.90;;;;;;4957706;28;89618;-34
2022/05/07 12:48:30;;;;;;;34.17;25.63;;;19.30;99.90;;;;;;4957208;28;89363;-38
2022/05/07 12:50:55;;;;;;;31.13;25.63;;;19.20;99.90;;;;;;4957712;28;89912;-37
2022/05/07 12:53:21;;;;;;;26.45;22.98;;;19.20;99.90;;;;;;4957566;28;90319;-35
2022/05/07 12:55:47;;;;;;;26.50;23.67;;;19.30;99.90;;;;;;4958218;28;89730;-36
2022/05/07 12:58:13;;;;;;;26.80;21.75;;;19.40;99.90;;;;;;4957105;28;89404;-33
2022/05/07 13:00:40;;;;;;;32.00;21.48;;;19.40;99.90;;;;;;4956859;28;90596;-40